Time;durP1;ratioP1;P1;durP2;ratioP2;P2;SDS_P1;SDS_P2;PMS_P1;PMS_P2;Temp;Humidity;BMP_temperature;BMP_pressure;BME280_temperature;BME280_humidity;BME280_pressure;Samples;Min_cycle;Max_cycle;Signal;HPM_P1;HPM_P2
2023/04/14 00:00:42;;;;;;;;;2.75;2.75;;;;;;;;5070159;28;11353;-87
2023/04/14 00:03:11;;;;;;;;;5.00;3.00;;;;;;;;5069535;28;11576;-87
2023/04/14 00:05:40;;;;;;;;;4.50;3.75;;;;;;;;5068983;28;11442;-87
2023/04/14 00:08:07;;;;;;;;;1.75;1.75;;;;;;;;5069791;28;12290;-87
2023/04/14 00:10:34;;;;;;;;;2.00;2.00;;;;;;;;5074765;28;11425;-87
2023/04/14 00:13:02;;;;;;;;;1.00;1.00;;;;;;;;5073238;28;11426;-88
2023/04/14 00:15:29;;;;;;;;;3.00;3.00;;;;;;;;5082393;28;11457;-87
2023/04/14 00:17:56;;;;;;;;;3.00;3.00;;;;;;;;5071754;28;11441;-86
2023/04/14 00:20:25;;;;;;;;;3.25;3.25;;;;;;;;5076646;28;11408;-85
2023/04/14 00:22:53;;;;;;;;;3.25;3.25;;;;;;;;5072281;28;11424;-89
2023/04/14 00:25:20;;;;;;;;;4.00;4.00;;;;;;;;5069713;28;11574;-88
2023/04/14 00:27:47;;;;;;;;;5.25;3.75;;;;;;;;5076153;28;11433;-86
2023/04/14 00:30:15;;;;;;;;;5.75;5.75;;;;;;;;5084752;28;11432;-86
2023/04/14 00:32:42;;;;;;;;;5.25;5.25;;;;;;;;5070828;28;11447;-87
2023/04/14 00:35:10;;;;;;;;;4.00;4.00;;;;;;;;5069039;28;11463;-87
2023/04/14 00:37:39;;;;;;;;;5.75;4.50;;;;;;;;5068801;28;11421;-87
2023/04/14 00:40:10;;;;;;;;;3.75;3.75;;;;;;;;5077878;28;11505;-86
2023/04/14 00:42:43;;;;;;;;;3.00;3.00;;;;;;;;5075704;28;11449;-87
2023/04/14 00:45:11;;;;;;;;;3.00;3.00;;;;;;;;5082781;28;11491;-89
2023/04/14 00:47:39;;;;;;;;;2.00;2.00;;;;;;;;5090134;28;11430;-88
2023/04/14 00:50:07;;;;;;;;;1.50;1.50;;;;;;;;5070970;28;11617;-88
2023/04/14 00:52:37;;;;;;;;;2.25;2.25;;;;;;;;5066514;28;11446;-88
2023/04/14 00:55:06;;;;;;;;;3.00;3.00;;;;;;;;5069095;28;11476;-87
2023/04/14 00:57:34;;;;;;;;;2.50;2.50;;;;;;;;5086113;28;11387;-89
2023/04/14 01:00:03;;;;;;;;;2.75;2.75;;;;;;;;5073381;28;11483;-88
2023/04/14 01:02:31;;;;;;;;;3.00;1.75;;;;;;;;5064992;28;11412;-88
2023/04/14 01:04:58;;;;;;;;;3.00;3.00;;;;;;;;5083852;28;11441;-88
2023/04/14 01:07:27;;;;;;;;;4.00;4.00;;;;;;;;5069257;28;11470;-87
2023/04/14 01:09:56;;;;;;;;;2.00;2.00;;;;;;;;5069910;28;11454;-88
2023/04/14 01:12:31;;;;;;;;;6.00;3.50;;;;;;;;5092585;28;11621;-87
2023/04/14 01:15:05;;;;;;;;;4.50;4.50;;;;;;;;5089107;28;11641;-88
2023/04/14 01:17:40;;;;;;;;;7.50;6.00;;;;;;;;5078061;28;11585;-88
2023/04/14 01:20:12;;;;;;;;;6.25;4.00;;;;;;;;5067842;28;11484;-87
2023/04/14 01:22:47;;;;;;;;;4.00;4.00;;;;;;;;5069024;28;11516;-88
2023/04/14 01:25:48;;;;;;;;;4.50;4.00;;;;;;;;5066510;28;11533;-88
2023/04/14 01:28:32;;;;;;;;;7.00;7.00;;;;;;;;5068083;28;11533;-89
2023/04/14 01:31:23;;;;;;;;;8.25;6.50;;;;;;;;5074292;28;11568;-88
2023/04/14 01:33:57;;;;;;;;;4.00;4.00;;;;;;;;5070207;28;11568;-88
2023/04/14 01:36:28;;;;;;;;;6.75;6.75;;;;;;;;5079596;28;11532;-86
2023/04/14 01:38:57;;;;;;;;;8.75;7.50;;;;;;;;5075622;28;11533;-87
2023/04/14 01:41:28;;;;;;;;;7.00;7.00;;;;;;;;5091579;28;11523;-88
2023/04/14 01:43:56;;;;;;;;;6.75;6.75;;;;;;;;5082352;28;11508;-89
2023/04/14 01:46:24;;;;;;;;;6.50;6.50;;;;;;;;5081067;28;11672;-89
2023/04/14 01:48:53;;;;;;;;;4.00;4.00;;;;;;;;5087484;28;11516;-89
2023/04/14 01:51:22;;;;;;;;;6.00;5.50;;;;;;;;5089549;28;11586;-88
2023/04/14 01:53:50;;;;;;;;;6.00;4.50;;;;;;;;5077742;28;11538;-88
2023/04/14 01:56:19;;;;;;;;;6.00;6.00;;;;;;;;5071582;28;11551;-88
2023/04/14 01:58:47;;;;;;;;;5.50;5.50;;;;;;;;5072087;28;11512;-88
2023/04/14 02:01:15;;;;;;;;;7.00;7.00;;;;;;;;5071252;28;11875;-88
2023/04/14 02:03:43;;;;;;;;;4.50;3.00;;;;;;;;5071699;28;12277;-88
2023/04/14 02:06:13;;;;;;;;;3.00;3.00;;;;;;;;5072232;28;11642;-88
2023/04/14 02:08:41;;;;;;;;;5.00;5.00;;;;;;;;5086193;28;11617;-88
2023/04/14 02:11:10;;;;;;;;;4.00;4.00;;;;;;;;5088639;28;11531;-88
2023/04/14 02:13:40;;;;;;;;;5.50;5.50;;;;;;;;5087804;28;12388;-88
2023/04/14 02:16:09;;;;;;;;;5.50;4.00;;;;;;;;5093347;28;11505;-88
2023/04/14 02:18:39;;;;;;;;;6.00;6.00;;;;;;;;5077227;28;11541;-88
2023/04/14 02:21:07;;;;;;;;;7.00;7.00;;;;;;;;5090993;28;11495;-88
2023/04/14 02:23:36;;;;;;;;;4.00;4.00;;;;;;;;5076926;28;11529;-88
2023/04/14 02:26:09;;;;;;;;;3.75;3.75;;;;;;;;5090957;28;11512;-89
2023/04/14 02:28:41;;;;;;;;;6.00;6.00;;;;;;;;5079504;28;11574;-88
2023/04/14 02:31:15;;;;;;;;;7.75;6.25;;;;;;;;5086817;28;11556;-88
2023/04/14 02:33:44;;;;;;;;;7.00;7.00;;;;;;;;5079567;28;11494;-88
2023/04/14 02:36:17;;;;;;;;;8.00;6.25;;;;;;;;5071319;28;11567;-89
2023/04/14 02:38:48;;;;;;;;;6.00;6.00;;;;;;;;5086081;28;11492;-86
2023/04/14 02:41:20;;;;;;;;;7.00;4.50;;;;;;;;5084492;28;11713;-89
2023/04/14 02:43:50;;;;;;;;;6.25;6.25;;;;;;;;5091025;28;11619;-88
2023/04/14 02:46:20;;;;;;;;;9.75;9.75;;;;;;;;5071881;28;11543;-89
2023/04/14 02:48:48;;;;;;;;;8.50;7.00;;;;;;;;5071374;28;11646;-88
2023/04/14 02:51:16;;;;;;;;;7.00;4.25;;;;;;;;5079973;28;12459;-88
2023/04/14 02:53:43;;;;;;;;;6.25;6.25;;;;;;;;5087791;28;11506;-87
2023/04/14 02:56:12;;;;;;;;;7.00;6.75;;;;;;;;5080691;28;11552;-88
2023/04/14 02:58:40;;;;;;;;;7.25;7.25;;;;;;;;5086178;28;11552;-87
2023/04/14 03:01:08;;;;;;;;;8.75;7.00;;;;;;;;5089356;28;11554;-87
2023/04/14 03:03:36;;;;;;;;;8.00;8.00;;;;;;;;5072287;28;11534;-87
2023/04/14 03:06:05;;;;;;;;;7.75;7.75;;;;;;;;5071525;28;11503;-87
2023/04/14 03:08:34;;;;;;;;;7.50;7.50;;;;;;;;5086376;28;11503;-88
2023/04/14 03:11:02;;;;;;;;;12.00;8.50;;;;;;;;5076557;28;11534;-88
2023/04/14 03:13:32;;;;;;;;;11.75;11.75;;;;;;;;5088322;28;11531;-89
2023/04/14 03:16:00;;;;;;;;;7.50;7.50;;;;;;;;5091022;28;11788;-88
2023/04/14 03:18:28;;;;;;;;;12.75;9.25;;;;;;;;5071834;28;11520;-88
2023/04/14 03:20:55;;;;;;;;;10.50;10.50;;;;;;;;5083034;28;11538;-88
2023/04/14 03:23:23;;;;;;;;;9.00;9.00;;;;;;;;5090027;28;11626;-87
2023/04/14 03:25:51;;;;;;;;;13.25;13.25;;;;;;;;5089696;28;11531;-87
2023/04/14 03:28:21;;;;;;;;;10.25;10.25;;;;;;;;5089690;28;11550;-88
2023/04/14 03:30:52;;;;;;;;;15.50;13.25;;;;;;;;5089442;28;11473;-87
2023/04/14 03:33:23;;;;;;;;;11.25;11.25;;;;;;;;5071457;28;12486;-88
2023/04/14 03:35:53;;;;;;;;;13.75;13.75;;;;;;;;5073662;28;11578;-88
2023/04/14 03:38:22;;;;;;;;;13.50;12.50;;;;;;;;5077744;28;11687;-88
2023/04/14 03:40:49;;;;;;;;;13.25;11.75;;;;;;;;5083441;28;11551;-88
2023/04/14 03:43:21;;;;;;;;;15.50;13.25;;;;;;;;5077745;28;11591;-89
2023/04/14 03:45:50;;;;;;;;;16.25;14.25;;;;;;;;5067245;28;11553;-88
2023/04/14 03:48:20;;;;;;;;;16.75;13.75;;;;;;;;5072069;28;11583;-88
2023/04/14 03:50:50;;;;;;;;;14.75;14.25;;;;;;;;5069756;28;11574;-89
2023/04/14 03:53:20;;;;;;;;;12.75;12.75;;;;;;;;5081570;28;11582;-88
2023/04/14 03:55:49;;;;;;;;;18.50;16.75;;;;;;;;5080004;28;11600;-89
2023/04/14 03:58:17;;;;;;;;;14.25;14.25;;;;;;;;5069249;28;11567;-89
2023/04/14 04:00:45;;;;;;;;;16.25;16.25;;;;;;;;5074586;28;11514;-88
2023/04/14 04:03:14;;;;;;;;;18.25;13.75;;;;;;;;5073596;28;11558;-87
2023/04/14 04:05:43;;;;;;;;;12.00;12.00;;;;;;;;5082412;28;11719;-88
2023/04/14 04:08:11;;;;;;;;;12.00;12.00;;;;;;;;5076809;28;11546;-86
2023/04/14 04:10:39;;;;;;;;;15.00;13.50;;;;;;;;5059469;28;11601;-88
2023/04/14 04:13:11;;;;;;;;;15.25;15.25;;;;;;;;5082559;28;11542;-89
2023/04/14 04:15:39;;;;;;;;;13.50;13.50;;;;;;;;5069412;28;11596;-89
2023/04/14 04:18:08;;;;;;;;;16.00;16.00;;;;;;;;5083108;28;11563;-89
2023/04/14 04:20:38;;;;;;;;;13.00;13.00;;;;;;;;5078481;28;11560;-89
2023/04/14 04:23:07;;;;;;;;;18.25;13.75;;;;;;;;5071939;28;11588;-90
2023/04/14 04:25:36;;;;;;;;;18.25;14.50;;;;;;;;5077945;28;11671;-90
2023/04/14 04:28:04;;;;;;;;;15.50;15.50;;;;;;;;5072883;28;11557;-89
2023/04/14 04:30:32;;;;;;;;;21.75;19.75;;;;;;;;5076694;28;11474;-90
2023/04/14 04:33:01;;;;;;;;;19.75;17.00;;;;;;;;5070461;28;11560;-89
2023/04/14 04:35:29;;;;;;;;;21.00;20.00;;;;;;;;5072152;28;11590;-89
2023/04/14 04:38:00;;;;;;;;;23.25;19.50;;;;;;;;5079787;28;11603;-88
2023/04/14 04:40:29;;;;;;;;;38.33;30.33;;;;;;;;5069644;28;11654;-86
2023/04/14 04:43:00;;;;;;;;;15.25;15.25;;;;;;;;5070071;28;11556;-89
2023/04/14 04:45:58;;;;;;;;;16.25;16.25;;;;;;;;5071389;28;11567;-89
2023/04/14 04:48:26;;;;;;;;;12.75;12.75;;;;;;;;5053838;28;11595;-88
2023/04/14 04:50:53;;;;;;;;;17.75;17.50;;;;;;;;5080638;28;11650;-88
2023/04/14 04:53:22;;;;;;;;;13.75;12.00;;;;;;;;5071033;28;11688;-88
2023/04/14 04:55:49;;;;;;;;;11.50;11.50;;;;;;;;5070349;28;11675;-88
2023/04/14 04:58:16;;;;;;;;;13.25;13.25;;;;;;;;5068686;28;11565;-88
2023/04/14 05:00:44;;;;;;;;;13.75;13.75;;;;;;;;5060599;28;11484;-88
2023/04/14 05:03:14;;;;;;;;;19.75;15.75;;;;;;;;5067480;28;11836;-88
2023/04/14 05:05:41;;;;;;;;;14.50;14.00;;;;;;;;5087399;28;11657;-87
2023/04/14 05:08:08;;;;;;;;;15.50;13.25;;;;;;;;5076840;28;11574;-88
2023/04/14 05:10:37;;;;;;;;;14.75;12.25;;;;;;;;5070023;28;11566;-88
2023/04/14 05:13:04;;;;;;;;;15.50;15.50;;;;;;;;5068633;28;11530;-88
2023/04/14 05:15:31;;;;;;;;;16.00;16.00;;;;;;;;5076796;28;11583;-88
2023/04/14 05:18:00;;;;;;;;;16.00;13.50;;;;;;;;5085939;28;11668;-87
2023/04/14 05:20:28;;;;;;;;;16.50;14.75;;;;;;;;5082628;28;11586;-87
2023/04/14 05:22:55;;;;;;;;;17.25;17.25;;;;;;;;5084525;28;11667;-87
2023/04/14 05:25:23;;;;;;;;;18.75;16.00;;;;;;;;5075183;28;11555;-88
2023/04/14 05:27:51;;;;;;;;;18.25;17.75;;;;;;;;5077469;28;12402;-87
2023/04/14 05:30:20;;;;;;;;;17.00;16.00;;;;;;;;5079381;28;11692;-88
2023/04/14 05:32:47;;;;;;;;;15.75;15.75;;;;;;;;5078611;28;11558;-86
2023/04/14 05:35:14;;;;;;;;;19.00;15.00;;;;;;;;5082398;28;11575;-88
2023/04/14 05:37:42;;;;;;;;;15.00;15.00;;;;;;;;5089815;28;11588;-88
2023/04/14 05:40:12;;;;;;;;;20.00;19.00;;;;;;;;5086305;28;11583;-87
2023/04/14 05:42:41;;;;;;;;;15.75;15.75;;;;;;;;5073159;28;11703;-86
2023/04/14 05:45:11;;;;;;;;;21.50;19.50;;;;;;;;5080942;28;11547;-74
2023/04/14 05:47:39;;;;;;;;;15.00;15.00;;;;;;;;5086441;28;11560;-71
2023/04/14 05:50:07;;;;;;;;;15.50;13.25;;;;;;;;5076513;28;11567;-75
2023/04/14 05:52:35;;;;;;;;;18.75;16.75;;;;;;;;5086397;28;11539;-74
2023/04/14 05:55:02;;;;;;;;;16.00;13.50;;;;;;;;5087405;28;11576;-69
2023/04/14 05:57:29;;;;;;;;;18.75;17.25;;;;;;;;5086263;28;11826;-73
2023/04/14 05:59:57;;;;;;;;;15.75;15.75;;;;;;;;5075095;28;11578;-72
2023/04/14 06:02:25;;;;;;;;;17.00;17.00;;;;;;;;5070534;28;11533;-71
2023/04/14 06:04:52;;;;;;;;;16.25;15.00;;;;;;;;5068819;28;11706;-72
2023/04/14 06:07:19;;;;;;;;;14.00;14.00;;;;;;;;5067966;28;11661;-71
2023/04/14 06:09:47;;;;;;;;;16.50;14.25;;;;;;;;5068855;28;11556;-70
2023/04/14 06:12:14;;;;;;;;;11.75;11.75;;;;;;;;5070558;28;11660;-72
2023/04/14 06:14:41;;;;;;;;;16.00;13.50;;;;;;;;5070393;28;11563;-75
2023/04/14 06:17:09;;;;;;;;;12.25;12.25;;;;;;;;5068647;28;12032;-75
2023/04/14 06:19:37;;;;;;;;;12.25;12.25;;;;;;;;5071136;28;12307;-74
2023/04/14 06:22:05;;;;;;;;;11.75;11.25;;;;;;;;5068771;28;12330;-76
2023/04/14 06:24:33;;;;;;;;;12.75;12.75;;;;;;;;5070428;28;11504;-73
2023/04/14 06:27:02;;;;;;;;;10.50;10.50;;;;;;;;5068224;28;12376;-73
2023/04/14 06:29:29;;;;;;;;;11.25;10.25;;;;;;;;5069311;28;11506;-72
2023/04/14 06:31:57;;;;;;;;;7.25;7.25;;;;;;;;5069040;28;11470;-76
2023/04/14 06:34:24;;;;;;;;;8.25;8.25;;;;;;;;5068625;28;11534;-73
2023/04/14 06:36:55;;;;;;;;;7.75;7.75;;;;;;;;5069426;28;12294;-73
2023/04/14 06:39:22;;;;;;;;;9.50;7.25;;;;;;;;5069883;28;11564;-74
2023/04/14 06:41:49;;;;;;;;;8.50;8.50;;;;;;;;5069008;28;11522;-70
2023/04/14 06:44:16;;;;;;;;;7.75;7.75;;;;;;;;5068316;28;11496;-72
2023/04/14 06:46:43;;;;;;;;;8.50;6.75;;;;;;;;5068811;28;11531;-69
2023/04/14 06:49:11;;;;;;;;;12.00;9.25;;;;;;;;5068523;28;11556;-74
2023/04/14 06:51:38;;;;;;;;;8.75;7.50;;;;;;;;5068177;28;11530;-73
2023/04/14 06:54:07;;;;;;;;;8.25;8.25;;;;;;;;5069223;28;11508;-73
2023/04/14 06:56:34;;;;;;;;;12.50;11.00;;;;;;;;5069389;28;11508;-78
2023/04/14 06:59:01;;;;;;;;;12.50;10.25;;;;;;;;5069873;28;11546;-74
2023/04/14 07:01:28;;;;;;;;;12.75;12.75;;;;;;;;5069734;28;11504;-77
2023/04/14 07:03:55;;;;;;;;;14.25;12.50;;;;;;;;5074300;28;11555;-75
2023/04/14 07:06:23;;;;;;;;;8.50;8.50;;;;;;;;5088193;28;12430;-77
2023/04/14 07:08:50;;;;;;;;;9.50;9.00;;;;;;;;5087588;28;11489;-75
2023/04/14 07:11:19;;;;;;;;;12.75;12.00;;;;;;;;5087392;28;11586;-73
2023/04/14 07:13:46;;;;;;;;;13.00;10.50;;;;;;;;5086605;28;11522;-74
2023/04/14 07:16:13;;;;;;;;;9.00;7.00;;;;;;;;5073356;28;11661;-75
2023/04/14 07:18:40;;;;;;;;;9.25;9.25;;;;;;;;5062829;28;11537;-75
2023/04/14 07:21:08;;;;;;;;;11.25;11.25;;;;;;;;5085991;28;11688;-77
2023/04/14 07:23:35;;;;;;;;;12.00;12.00;;;;;;;;5076835;28;11550;-75
2023/04/14 07:26:02;;;;;;;;;15.00;13.00;;;;;;;;5071160;28;11606;-77
2023/04/14 07:28:31;;;;;;;;;10.25;10.25;;;;;;;;5068212;28;11576;-75
2023/04/14 07:30:59;;;;;;;;;13.00;10.00;;;;;;;;5073153;28;11633;-75
2023/04/14 07:33:29;;;;;;;;;11.50;10.25;;;;;;;;5067938;28;11543;-75
2023/04/14 07:35:59;;;;;;;;;13.00;13.00;;;;;;;;5072196;28;11675;-75
2023/04/14 07:38:26;;;;;;;;;13.25;13.25;;;;;;;;5067679;28;11538;-73
2023/04/14 07:40:55;;;;;;;;;10.75;10.75;;;;;;;;5072299;28;11565;-73
2023/04/14 07:43:22;;;;;;;;;9.00;9.00;;;;;;;;5066778;28;11575;-74
2023/04/14 07:45:52;;;;;;;;;8.75;8.75;;;;;;;;5072586;28;11467;-72
2023/04/14 07:48:20;;;;;;;;;7.00;7.00;;;;;;;;5061259;28;11466;-75
2023/04/14 07:50:48;;;;;;;;;8.75;8.75;;;;;;;;5067215;28;11579;-76
2023/04/14 07:53:15;;;;;;;;;5.75;5.75;;;;;;;;5070586;28;11450;-75
2023/04/14 07:55:42;;;;;;;;;9.00;8.00;;;;;;;;5072481;28;11427;-76
2023/04/14 07:58:10;;;;;;;;;11.50;11.50;;;;;;;;5069754;28;11580;-74
2023/04/14 08:00:37;;;;;;;;;11.50;10.25;;;;;;;;5069507;28;11396;-72
2023/04/14 08:03:06;;;;;;;;;8.75;8.75;;;;;;;;5067480;28;11473;-72
2023/04/14 08:05:33;;;;;;;;;7.25;7.25;;;;;;;;5067047;28;11468;-72
2023/04/14 08:08:00;;;;;;;;;15.00;9.75;;;;;;;;5067279;28;11457;-76
2023/04/14 08:10:28;;;;;;;;;10.50;10.50;;;;;;;;5086230;28;11482;-71
2023/04/14 08:12:55;;;;;;;;;10.25;10.25;;;;;;;;5085740;28;11524;-70
2023/04/14 08:15:22;;;;;;;;;8.00;8.00;;;;;;;;5076350;28;11534;-73
2023/04/14 08:17:49;;;;;;;;;9.75;9.00;;;;;;;;5065912;28;11540;-69
2023/04/14 08:20:18;;;;;;;;;8.50;8.50;;;;;;;;5076821;28;11581;-74
2023/04/14 08:22:45;;;;;;;;;8.75;8.75;;;;;;;;5066215;28;11493;-74
2023/04/14 08:25:13;;;;;;;;;8.75;8.50;;;;;;;;5066306;28;11460;-77
2023/04/14 08:27:41;;;;;;;;;8.75;8.75;;;;;;;;5069190;28;11419;-80
2023/04/14 08:30:09;;;;;;;;;9.00;9.00;;;;;;;;5080764;28;11459;-77
2023/04/14 08:32:36;;;;;;;;;13.50;10.00;;;;;;;;5066685;28;11599;-79
2023/04/14 08:35:04;;;;;;;;;12.50;12.50;;;;;;;;5067206;28;11462;-81
2023/04/14 08:37:32;;;;;;;;;12.25;12.25;;;;;;;;5068571;28;11536;-81
2023/04/14 08:40:00;;;;;;;;;16.25;15.00;;;;;;;;5087370;28;11477;-87
2023/04/14 08:42:27;;;;;;;;;15.00;11.25;;;;;;;;5073530;28;11521;-80
2023/04/14 08:44:55;;;;;;;;;10.00;10.00;;;;;;;;5077505;28;11498;-76
2023/04/14 08:47:22;;;;;;;;;15.75;12.50;;;;;;;;5072263;28;11615;-77
2023/04/14 08:49:55;;;;;;;;;9.50;9.50;;;;;;;;5069627;28;11517;-73
2023/04/14 08:52:25;;;;;;;;;8.75;8.75;;;;;;;;5078541;28;11221;-78
2023/04/14 08:54:57;;;;;;;;;6.50;6.50;;;;;;;;5079496;28;11161;-77
2023/04/14 08:57:26;;;;;;;;;10.00;9.75;;;;;;;;5077336;28;11118;-77
2023/04/14 08:59:56;;;;;;;;;7.25;7.25;;;;;;;;5081364;28;11097;-77
2023/04/14 09:02:24;;;;;;;;;6.50;6.50;;;;;;;;5062867;28;10834;-78
2023/04/14 09:04:52;;;;;;;;;9.00;6.50;;;;;;;;5069760;28;11641;-79
2023/04/14 09:07:19;;;;;;;;;10.00;10.00;;;;;;;;5065326;28;11026;-78
2023/04/14 09:09:46;;;;;;;;;9.00;9.00;;;;;;;;5089786;28;10943;-76
2023/04/14 09:12:16;;;;;;;;;7.50;7.50;;;;;;;;5078803;28;10850;-78
2023/04/14 09:14:45;;;;;;;;;10.25;8.25;;;;;;;;5078867;28;10889;-78
2023/04/14 09:17:13;;;;;;;;;8.25;8.25;;;;;;;;5086158;28;10760;-76
2023/04/14 09:19:40;;;;;;;;;10.00;9.50;;;;;;;;5075013;28;10814;-78
2023/04/14 09:22:07;;;;;;;;;7.25;7.25;;;;;;;;5081981;28;10943;-73
2023/04/14 09:24:35;;;;;;;;;5.00;5.00;;;;;;;;5074820;28;10679;-75
2023/04/14 09:27:04;;;;;;;;;5.25;5.25;;;;;;;;5078302;28;10643;-75
2023/04/14 09:29:32;;;;;;;;;6.00;6.00;;;;;;;;5085813;28;11484;-78
2023/04/14 09:32:00;;;;;;;;;7.50;7.50;;;;;;;;5089265;28;11424;-76
2023/04/14 09:34:27;;;;;;;;;9.25;7.25;;;;;;;;5071981;28;11479;-78
2023/04/14 09:37:01;;;;;;;;;6.50;6.25;;;;;;;;5070571;28;10698;-79
2023/04/14 09:39:28;;;;;;;;;7.00;7.00;;;;;;;;5070334;28;10534;-75
2023/04/14 09:41:55;;;;;;;;;6.25;6.00;;;;;;;;5070301;28;10423;-76
2023/04/14 09:44:22;;;;;;;;;5.00;5.00;;;;;;;;5086554;28;10364;-74
2023/04/14 09:47:03;;;;;;;;;5.25;5.25;;;;;;;;5088998;28;10463;-72
2023/04/14 09:49:31;;;;;;;;;5.00;5.00;;;;;;;;5066733;28;10583;-77
2023/04/14 09:52:04;;;;;;;;;4.00;3.00;;;;;;;;5086950;28;10301;-76
2023/04/14 09:54:31;;;;;;;;;6.00;5.25;;;;;;;;5089040;28;10305;-75
2023/04/14 09:56:58;;;;;;;;;1.75;1.75;;;;;;;;5084790;28;10362;-78
2023/04/14 09:59:33;;;;;;;;;4.00;4.00;;;;;;;;5079449;28;10301;-76
2023/04/14 10:02:05;;;;;;;;;8.75;4.25;;;;;;;;5083148;28;10208;-71
2023/04/14 10:04:32;;;;;;;;;5.00;3.50;;;;;;;;5080680;28;11254;-76
2023/04/14 10:07:00;;;;;;;;;3.00;3.00;;;;;;;;5071417;28;10254;-73
2023/04/14 10:09:28;;;;;;;;;3.00;3.00;;;;;;;;5069756;28;10285;-76
2023/04/14 10:12:09;;;;;;;;;3.50;3.50;;;;;;;;5087334;28;10086;-77
2023/04/14 10:14:37;;;;;;;;;3.00;3.00;;;;;;;;5088287;28;10215;-77
2023/04/14 10:17:06;;;;;;;;;2.00;2.00;;;;;;;;5090581;28;10084;-78
2023/04/14 10:19:34;;;;;;;;;1.00;1.00;;;;;;;;5081645;28;9900;-72
2023/04/14 10:22:02;;;;;;;;;2.00;2.00;;;;;;;;5075389;28;10007;-80
2023/04/14 10:24:30;;;;;;;;;2.00;2.00;;;;;;;;5072944;28;10703;-77
2023/04/14 10:26:58;;;;;;;;;1.75;1.75;;;;;;;;5070896;28;9766;-75
2023/04/14 10:29:25;;;;;;;;;1.00;1.00;;;;;;;;5068686;28;9758;-74
2023/04/14 10:31:55;;;;;;;;;1.75;1.75;;;;;;;;5080873;28;9713;-72
2023/04/14 10:34:24;;;;;;;;;3.00;1.00;;;;;;;;5077510;28;9621;-76
2023/04/14 10:36:51;;;;;;;;;1.00;1.00;;;;;;;;5083913;28;9605;-74
2023/04/14 10:39:23;;;;;;;;;1.00;1.00;;;;;;;;5079800;28;9511;-72
2023/04/14 10:41:52;;;;;;;;;1.25;1.25;;;;;;;;5069053;28;9583;-80
2023/04/14 10:44:27;;;;;;;;;1.00;1.00;;;;;;;;5074070;28;9533;-75
2023/04/14 10:46:55;;;;;;;;;2.00;1.00;;;;;;;;5080541;28;9618;-70
2023/04/14 10:49:31;;;;;;;;;1.00;1.00;;;;;;;;5078476;28;9545;-71
2023/04/14 10:51:59;;;;;;;;;1.00;1.00;;;;;;;;5077744;28;9618;-76
2023/04/14 10:54:27;;;;;;;;;1.00;1.00;;;;;;;;5077877;28;9889;-76
2023/04/14 10:57:13;;;;;;;;;1.00;1.00;;;;;;;;5078050;28;9610;-74
2023/04/14 10:59:42;;;;;;;;;1.50;1.50;;;;;;;;5069229;28;9753;-76
2023/04/14 11:02:23;;;;;;;;;1.00;1.00;;;;;;;;5069575;28;9973;-78
2023/04/14 11:05:07;;;;;;;;;1.00;1.00;;;;;;;;5083142;28;9943;-76
2023/04/14 11:07:39;;;;;;;;;1.00;1.00;;;;;;;;5062203;28;10045;-76
2023/04/14 11:10:25;;;;;;;;;1.00;1.00;;;;;;;;5086528;28;9908;-79
2023/04/14 11:12:56;;;;;;;;;1.25;1.25;;;;;;;;5071262;28;10054;-76
2023/04/14 11:15:23;;;;;;;;;1.00;1.00;;;;;;;;5075011;28;10022;-76
2023/04/14 11:17:51;;;;;;;;;0.75;0.75;;;;;;;;5068417;28;10044;-72
2023/04/14 11:20:22;;;;;;;;;2.00;2.00;;;;;;;;5063849;28;10776;-74
2023/04/14 11:22:51;;;;;;;;;1.75;1.50;;;;;;;;5077912;28;10144;-70
2023/04/14 11:25:20;;;;;;;;;1.00;1.00;;;;;;;;5083595;28;10860;-73
2023/04/14 11:27:48;;;;;;;;;2.00;2.00;;;;;;;;5067511;28;10266;-73
2023/04/14 11:30:16;;;;;;;;;1.25;1.25;;;;;;;;5076279;28;10091;-75
2023/04/14 11:32:49;;;;;;;;;2.00;0.00;;;;;;;;5069782;28;10152;-73
2023/04/14 11:35:16;;;;;;;;;2.00;2.00;;;;;;;;5080958;28;10067;-74
2023/04/14 11:37:45;;;;;;;;;1.00;1.00;;;;;;;;5079229;28;10224;-75
2023/04/14 11:40:14;;;;;;;;;1.00;1.00;;;;;;;;5079323;28;10078;-74
2023/04/14 11:42:45;;;;;;;;;1.00;1.00;;;;;;;;5067530;28;10008;-75
2023/04/14 11:45:14;;;;;;;;;1.00;1.00;;;;;;;;5074750;28;10127;-75
2023/04/14 11:47:46;;;;;;;;;2.00;0.50;;;;;;;;5072916;28;10160;-74
2023/04/14 11:50:13;;;;;;;;;0.00;0.00;;;;;;;;5068654;28;10081;-74
2023/04/14 11:52:46;;;;;;;;;1.75;0.00;;;;;;;;5081712;28;10177;-75
2023/04/14 11:55:14;;;;;;;;;0.00;0.00;;;;;;;;5075750;28;10407;-75
2023/04/14 11:57:44;;;;;;;;;0.00;0.00;;;;;;;;5081900;28;10520;-75
2023/04/14 12:00:12;;;;;;;;;0.00;0.00;;;;;;;;5067670;28;10549;-73
2023/04/14 12:02:42;;;;;;;;;0.00;0.00;;;;;;;;5073532;28;10590;-76
2023/04/14 12:05:10;;;;;;;;;0.00;0.00;;;;;;;;5068549;28;10743;-76
2023/04/14 12:07:38;;;;;;;;;0.00;0.00;;;;;;;;5086555;28;10571;-74
2023/04/14 12:10:08;;;;;;;;;0.00;0.00;;;;;;;;5084334;28;10641;-76
2023/04/14 12:12:35;;;;;;;;;0.00;0.00;;;;;;;;5085982;28;11527;-73
2023/04/14 12:15:04;;;;;;;;;1.00;0.00;;;;;;;;5068670;28;10603;-76
2023/04/14 12:17:31;;;;;;;;;1.00;0.00;;;;;;;;5077779;28;10776;-76
2023/04/14 12:19:58;;;;;;;;;0.00;0.00;;;;;;;;5080036;28;10629;-76
2023/04/14 12:22:26;;;;;;;;;0.00;0.00;;;;;;;;5066873;28;10664;-75
2023/04/14 12:24:55;;;;;;;;;0.00;0.00;;;;;;;;5070600;28;10652;-76
2023/04/14 12:27:25;;;;;;;;;0.00;0.00;;;;;;;;5075061;28;10778;-76
2023/04/14 12:29:52;;;;;;;;;0.00;0.00;;;;;;;;5072254;28;11374;-75
2023/04/14 12:32:20;;;;;;;;;0.00;0.00;;;;;;;;5073212;28;10658;-76
2023/04/14 12:34:57;;;;;;;;;0.00;0.00;;;;;;;;5078289;28;10653;-69
2023/04/14 12:37:26;;;;;;;;;1.50;0.00;;;;;;;;5078982;28;10440;-76
2023/04/14 12:39:56;;;;;;;;;0.00;0.00;;;;;;;;5078210;28;10519;-76
2023/04/14 12:42:25;;;;;;;;;0.00;0.00;;;;;;;;5080179;28;10449;-75
2023/04/14 12:44:56;;;;;;;;;0.00;0.00;;;;;;;;5077000;28;10367;-76
2023/04/14 12:47:28;;;;;;;;;0.00;0.00;;;;;;;;5069412;28;10511;-75
2023/04/14 12:49:57;;;;;;;;;0.00;0.00;;;;;;;;5086441;28;10469;-76
2023/04/14 12:52:35;;;;;;;;;0.00;0.00;;;;;;;;5070471;28;10680;-76
2023/04/14 12:55:03;;;;;;;;;0.00;0.00;;;;;;;;5077963;28;10469;-77
2023/04/14 12:57:32;;;;;;;;;0.00;0.00;;;;;;;;5078479;28;10372;-77
2023/04/14 12:59:59;;;;;;;;;0.00;0.00;;;;;;;;5078317;28;10517;-73
2023/04/14 13:02:28;;;;;;;;;0.00;0.00;;;;;;;;5058943;28;10442;-75
2023/04/14 13:04:56;;;;;;;;;0.50;0.00;;;;;;;;5075000;28;10543;-76
2023/04/14 13:07:23;;;;;;;;;0.75;0.75;;;;;;;;5076739;28;10583;-76
2023/04/14 13:09:50;;;;;;;;;0.00;0.00;;;;;;;;5071985;28;10471;-76
2023/04/14 13:12:18;;;;;;;;;0.00;0.00;;;;;;;;5070349;28;10736;-74
2023/04/14 13:14:46;;;;;;;;;0.00;0.00;;;;;;;;5076869;28;10578;-77
2023/04/14 13:17:13;;;;;;;;;0.00;0.00;;;;;;;;5082659;28;10565;-71
2023/04/14 13:19:41;;;;;;;;;1.75;0.00;;;;;;;;5072573;28;10683;-71
2023/04/14 13:22:08;;;;;;;;;0.00;0.00;;;;;;;;5066601;28;10550;-75
2023/04/14 13:24:35;;;;;;;;;0.00;0.00;;;;;;;;5066354;28;10498;-75
2023/04/14 13:27:03;;;;;;;;;0.50;0.50;;;;;;;;5066525;28;10526;-74
2023/04/14 13:29:32;;;;;;;;;0.00;0.00;;;;;;;;5066078;28;10531;-73
2023/04/14 13:32:00;;;;;;;;;0.25;0.00;;;;;;;;5065781;28;11271;-69
2023/04/14 13:34:28;;;;;;;;;1.00;1.00;;;;;;;;5066061;28;11154;-75
2023/04/14 13:36:55;;;;;;;;;0.00;0.00;;;;;;;;5067706;28;10565;-75
2023/04/14 13:39:23;;;;;;;;;0.00;0.00;;;;;;;;5069327;28;10421;-75
2023/04/14 13:41:51;;;;;;;;;0.00;0.00;;;;;;;;5069596;28;10401;-75
2023/04/14 13:44:18;;;;;;;;;0.00;0.00;;;;;;;;5069947;28;10442;-74
2023/04/14 13:46:45;;;;;;;;;0.00;0.00;;;;;;;;5080458;28;11134;-75
2023/04/14 13:49:13;;;;;;;;;0.50;0.50;;;;;;;;5071215;28;10496;-75
2023/04/14 13:51:41;;;;;;;;;0.00;0.00;;;;;;;;5069985;28;10467;-75
2023/04/14 13:54:08;;;;;;;;;2.00;0.00;;;;;;;;5070021;28;10283;-69
2023/04/14 13:56:35;;;;;;;;;0.00;0.00;;;;;;;;5070261;28;10448;-75
2023/04/14 13:59:02;;;;;;;;;0.50;0.50;;;;;;;;5069334;28;10516;-79
2023/04/14 14:01:29;;;;;;;;;0.50;0.00;;;;;;;;5071583;28;10635;-80
2023/04/14 14:03:57;;;;;;;;;1.00;1.00;;;;;;;;5069276;28;11340;-81
2023/04/14 14:06:26;;;;;;;;;1.00;1.00;;;;;;;;5082453;28;10675;-77
2023/04/14 14:09:03;;;;;;;;;1.25;1.00;;;;;;;;5081869;28;10444;-75
2023/04/14 14:11:30;;;;;;;;;1.00;1.00;;;;;;;;5082498;28;10490;-72
2023/04/14 14:13:57;;;;;;;;;2.00;2.00;;;;;;;;5069076;28;10533;-72
2023/04/14 14:16:24;;;;;;;;;1.00;1.00;;;;;;;;5070581;28;10458;-73
2023/04/14 14:18:52;;;;;;;;;1.00;1.00;;;;;;;;5080232;28;10466;-72
2023/04/14 14:21:19;;;;;;;;;3.00;1.00;;;;;;;;5068725;28;10393;-72
2023/04/14 14:23:47;;;;;;;;;0.00;0.00;;;;;;;;5069160;28;10368;-72
2023/04/14 14:26:15;;;;;;;;;1.00;1.00;;;;;;;;5084746;28;10184;-78
2023/04/14 14:28:42;;;;;;;;;0.50;0.00;;;;;;;;5089155;28;10155;-75
2023/04/14 14:31:09;;;;;;;;;0.00;0.00;;;;;;;;5074488;28;10186;-76
2023/04/14 14:33:37;;;;;;;;;0.00;0.00;;;;;;;;5078552;28;10172;-75
2023/04/14 14:36:05;;;;;;;;;0.00;0.00;;;;;;;;5081330;28;9930;-77
2023/04/14 14:38:32;;;;;;;;;0.00;0.00;;;;;;;;5074646;28;10221;-77
2023/04/14 14:41:01;;;;;;;;;0.00;0.00;;;;;;;;5076958;28;10119;-75
2023/04/14 14:43:28;;;;;;;;;0.00;0.00;;;;;;;;5069401;28;10579;-80
2023/04/14 14:45:56;;;;;;;;;0.00;0.00;;;;;;;;5083497;28;10081;-80